Novokuybyshevsk, Russia
Current Conditions -  °F | °C
As of 10:30 PM on Thursday 29 Jan 2015 (Local Time) from UWWW Reporting Station
Clear Clear  
Wind Chill: -10°   Ceiling: Unl
Heat Index:   Visibility: 6mi
Dew Point: -6°   Wind: 4mph
Humidity: 78%   Direction: 150°SSE
Pressure: 30.15"   Gusts: NA
Location:  53.09°N, 49.88°E
Report Text: UWWW 291830Z 15002MPS CAVOK M18/M21 Q1021 05820545 15//99//NOSIG RMK QFE752/1003
Loading
Personal Weather Stations






























Interactive Weather Map New forecast layout! Learn more

10-Day Weather Forecast

Advertisements
Track Severe Weather on mobile